createdAt,value
2019-03-08T00:00:44.813Z,74.52
2019-03-08T00:03:12.345Z,75.14
2019-03-08T00:05:39.799Z,75.39
2019-03-08T00:08:07.257Z,75.07
2019-03-08T00:10:34.735Z,75.66
2019-03-08T00:13:02.211Z,76.21
2019-03-08T00:15:29.698Z,76.46
2019-03-08T00:17:57.179Z,76.73
2019-03-08T00:20:26.825Z,77.53
2019-03-08T00:22:54.300Z,77.72
2019-03-08T00:25:21.757Z,78.55
2019-03-08T00:27:49.206Z,81.15
2019-03-08T00:30:16.676Z,83.09
2019-03-08T00:32:44.259Z,84.22
2019-03-08T00:35:11.759Z,85.78
2019-03-08T00:37:39.266Z,86.45
2019-03-08T00:40:11.984Z,86.57
2019-03-08T00:42:39.497Z,87.46
2019-03-08T00:45:10.255Z,87.07
2019-03-08T00:47:38.961Z,87.04
2019-03-08T00:50:06.486Z,87.39
2019-03-08T00:52:33.989Z,87.30
2019-03-08T00:55:01.471Z,87.57
2019-03-08T00:57:28.965Z,87.05
2019-03-08T00:59:56.428Z,87.32
2019-03-08T01:02:23.936Z,87.29
2019-03-08T01:04:51.427Z,87.14
2019-03-08T01:07:19.004Z,86.27
2019-03-08T01:09:46.481Z,86.28
2019-03-08T01:12:13.982Z,86.13
2019-03-08T01:14:41.434Z,86.12
2019-03-08T01:17:08.938Z,86.49
2019-03-08T01:19:36.415Z,87.01
2019-03-08T01:22:03.891Z,87.22
2019-03-08T01:24:31.362Z,87.44
2019-03-08T01:27:03.814Z,87.73
2019-03-08T01:29:31.248Z,87.93
2019-03-08T01:31:58.700Z,88.77
2019-03-08T01:34:26.238Z,88.91
2019-03-08T01:36:53.699Z,89.15
2019-03-08T01:39:21.155Z,89.69
2019-03-08T01:41:48.645Z,89.83
2019-03-08T01:44:16.852Z,90.47
2019-03-08T01:46:44.313Z,90.11
2019-03-08T01:49:11.773Z,90.22
2019-03-08T01:51:39.234Z,90.35
2019-03-08T01:54:06.688Z,90.32
2019-03-08T01:56:34.136Z,91.04
2019-03-08T01:59:01.586Z,90.99
2019-03-08T02:01:29.053Z,90.87
2019-03-08T02:03:56.497Z,91.44
2019-03-08T02:06:23.963Z,91.67
2019-03-08T02:08:51.442Z,91.89
2019-03-08T02:11:18.887Z,92.39
2019-03-08T02:13:48.126Z,92.72
2019-03-08T02:16:15.666Z,92.79
2019-03-08T02:18:43.118Z,92.85
2019-03-08T02:21:10.605Z,93.01
2019-03-08T02:23:38.046Z,93.00
2019-03-08T02:26:05.500Z,93.17
2019-03-08T02:28:33.928Z,93.21
2019-03-08T02:31:01.484Z,93.25
2019-03-08T02:33:28.954Z,93.20
2019-03-08T02:35:56.424Z,93.61
2019-03-08T02:38:23.937Z,93.95
2019-03-08T02:40:52.429Z,94.10
2019-03-08T02:43:19.870Z,94.49
2019-03-08T02:45:47.903Z,94.17
2019-03-08T02:48:15.358Z,94.05
2019-03-08T02:50:42.815Z,94.41
2019-03-08T02:53:10.302Z,94.39
2019-03-08T02:55:37.790Z,94.61
2019-03-08T02:58:05.264Z,95.01
2019-03-08T03:00:33.630Z,95.49
2019-03-08T03:03:01.095Z,95.56
2019-03-08T03:05:28.608Z,95.71
2019-03-08T03:07:56.026Z,95.75
2019-03-08T03:10:23.502Z,95.91
2019-03-08T03:12:50.968Z,95.71
2019-03-08T03:15:18.482Z,96.05
2019-03-08T03:17:45.921Z,96.34
2019-03-08T03:20:13.406Z,96.67
2019-03-08T03:22:40.861Z,96.46
2019-03-08T03:25:08.391Z,96.42
2019-03-08T03:27:35.831Z,97.09
2019-03-08T03:30:03.290Z,97.05
2019-03-08T03:32:30.792Z,98.02
2019-03-08T03:34:58.254Z,98.30
2019-03-08T03:37:25.714Z,98.46
2019-03-08T03:39:53.163Z,98.62
2019-03-08T03:42:20.623Z,98.56
2019-03-08T03:44:48.939Z,97.68
2019-03-08T03:47:16.422Z,97.03
2019-03-08T03:49:43.893Z,96.79
2019-03-08T03:52:11.336Z,96.59
2019-03-08T03:54:38.772Z,96.24
2019-03-08T03:57:06.237Z,95.83
2019-03-08T03:59:33.683Z,95.73
2019-03-08T04:02:02.048Z,95.21
2019-03-08T04:04:29.707Z,95.10
2019-03-08T04:06:57.192Z,95.26
2019-03-08T04:09:24.644Z,95.31
2019-03-08T04:11:52.095Z,95.20
2019-03-08T04:14:19.629Z,95.35
2019-03-08T04:16:47.075Z,95.29
2019-03-08T04:19:14.517Z,95.30
2019-03-08T04:21:41.962Z,95.13
2019-03-08T04:24:09.429Z,95.12
2019-03-08T04:26:36.889Z,94.78
2019-03-08T04:29:04.346Z,94.92
2019-03-08T04:31:31.816Z,94.70
2019-03-08T04:33:59.296Z,94.70
2019-03-08T04:36:30.208Z,94.64
2019-03-08T04:38:56.361Z,94.67
2019-03-08T04:41:23.809Z,94.61
2019-03-08T04:43:51.248Z,94.90
2019-03-08T04:46:18.738Z,94.61
2019-03-08T04:48:47.154Z,94.78
2019-03-08T04:51:14.725Z,94.67
2019-03-08T04:53:42.186Z,94.18
2019-03-08T04:56:09.632Z,94.05
2019-03-08T04:58:37.089Z,94.08
2019-03-08T05:01:04.537Z,94.18
2019-03-08T05:03:31.985Z,94.20
2019-03-08T05:06:00.826Z,94.28
2019-03-08T05:08:26.976Z,94.51
2019-03-08T05:10:54.410Z,94.52
2019-03-08T05:13:21.849Z,94.47
2019-03-08T05:15:49.352Z,94.31
2019-03-08T05:18:16.826Z,94.50
2019-03-08T05:20:44.295Z,94.44
2019-03-08T05:23:11.774Z,94.27
2019-03-08T05:25:39.224Z,94.30
2019-03-08T05:28:06.674Z,94.25
2019-03-08T05:30:34.103Z,94.01
2019-03-08T05:33:01.580Z,93.82
2019-03-08T05:35:29.052Z,93.67
2019-03-08T05:37:56.505Z,93.80
2019-03-08T05:40:24.136Z,93.75
2019-03-08T05:42:51.585Z,93.62
2019-03-08T05:45:19.091Z,93.84
2019-03-08T05:47:46.557Z,93.74
2019-03-08T05:50:14.041Z,93.19
2019-03-08T05:52:41.509Z,93.82
2019-03-08T05:55:09.808Z,93.68
2019-03-08T05:57:37.249Z,93.70
2019-03-08T06:00:07.185Z,93.79
2019-03-08T06:02:34.624Z,93.57
2019-03-08T06:05:02.092Z,93.55
2019-03-08T06:07:29.557Z,93.40
2019-03-08T06:09:57.071Z,93.49
2019-03-08T06:12:24.545Z,93.33
2019-03-08T06:14:52.578Z,93.40
2019-03-08T06:17:20.068Z,93.31
2019-03-08T06:19:47.526Z,93.19
2019-03-08T06:22:14.967Z,93.24
2019-03-08T06:24:42.439Z,93.03
2019-03-08T06:29:32.757Z,93.05
2019-03-08T06:32:00.211Z,92.65
2019-03-08T06:34:27.687Z,92.67
2019-03-08T06:36:55.181Z,92.51
2019-03-08T06:39:22.899Z,92.52
2019-03-08T06:41:50.383Z,92.21
2019-03-08T06:44:17.868Z,91.91
2019-03-08T06:46:46.200Z,91.81
2019-03-08T06:49:14.839Z,91.87
2019-03-08T06:51:42.333Z,91.85
2019-03-08T06:54:09.838Z,91.71
2019-03-08T06:56:37.319Z,91.66
2019-03-08T06:59:06.298Z,91.56
2019-03-08T07:01:33.786Z,91.66
2019-03-08T07:04:01.291Z,91.54
2019-03-08T07:06:28.763Z,91.59
2019-03-08T07:08:56.322Z,91.48
2019-03-08T07:11:23.770Z,91.41
2019-03-08T07:13:51.246Z,91.42
2019-03-08T07:16:18.730Z,91.15
2019-03-08T07:18:46.253Z,91.16
2019-03-08T07:21:16.533Z,90.64
2019-03-08T07:23:47.541Z,90.52
2019-03-08T07:26:16.676Z,90.66
2019-03-08T07:28:47.993Z,90.27
2019-03-08T07:31:33.122Z,90.40
2019-03-08T07:34:06.546Z,90.27
2019-03-08T07:36:39.737Z,90.19
2019-03-08T07:39:28.375Z,90.31
2019-03-08T07:42:00.606Z,90.61
2019-03-08T07:44:28.485Z,90.34
2019-03-08T07:47:16.735Z,90.29
2019-03-08T07:50:00.997Z,89.86
2019-03-08T07:52:31.810Z,89.83
2019-03-08T07:55:01.098Z,89.87
2019-03-08T07:57:46.361Z,90.35
2019-03-08T08:00:29.227Z,90.27
2019-03-08T08:03:03.482Z,89.85
2019-03-08T08:05:30.728Z,90.07
2019-03-08T08:08:08.095Z,89.37
2019-03-08T08:10:50.429Z,89.33
2019-03-08T08:13:23.709Z,89.16
2019-03-08T08:15:57.661Z,88.68
2019-03-08T08:18:41.092Z,88.62
2019-03-08T08:21:12.929Z,88.14
2019-03-08T08:23:56.054Z,88.42
2019-03-08T08:26:27.988Z,87.54
2019-03-08T08:28:56.108Z,87.42
2019-03-08T08:31:42.320Z,87.18
2019-03-08T08:34:12.388Z,87.22
2019-03-08T08:36:43.567Z,86.65
2019-03-08T08:39:17.268Z,86.36
2019-03-08T08:41:50.327Z,85.90
2019-03-08T08:44:17.765Z,85.50
2019-03-08T08:46:46.086Z,85.46
2019-03-08T08:49:14.354Z,84.60
2019-03-08T08:51:42.215Z,85.31
2019-03-08T08:54:24.587Z,84.98
2019-03-08T08:56:54.998Z,84.37
2019-03-08T08:59:37.325Z,84.71
2019-03-08T09:02:05.578Z,84.50
2019-03-08T09:04:33.041Z,83.45
2019-03-08T09:07:06.025Z,83.23
2019-03-08T09:09:37.898Z,82.72
2019-03-08T09:12:05.365Z,82.36
2019-03-08T09:14:32.840Z,82.55
2019-03-08T09:17:00.325Z,82.47
2019-03-08T09:19:33.661Z,82.30
2019-03-08T09:22:20.057Z,81.73
2019-03-08T09:24:57.395Z,81.76
2019-03-08T09:27:26.837Z,82.04
2019-03-08T09:29:59.210Z,82.11
2019-03-08T09:32:27.227Z,81.47
2019-03-08T09:34:55.461Z,80.66
2019-03-08T09:37:36.776Z,80.34
2019-03-08T09:40:25.068Z,80.80
2019-03-08T09:43:09.362Z,81.14
2019-03-08T09:45:52.561Z,80.37
2019-03-08T09:48:25.633Z,80.69
2019-03-08T09:50:56.039Z,80.78
2019-03-08T09:53:26.195Z,80.26
2019-03-08T09:56:07.483Z,78.55
2019-03-08T09:58:40.708Z,78.33
2019-03-08T10:01:16.368Z,78.31
2019-03-08T10:03:37.726Z,79.63
2019-03-08T10:06:06.665Z,78.94
2019-03-08T10:08:39.962Z,79.11
2019-03-08T10:11:07.411Z,79.79
2019-03-08T10:13:39.807Z,78.62
2019-03-08T10:16:12.167Z,79.80
2019-03-08T10:18:46.152Z,77.76
2019-03-08T10:21:14.514Z,77.11
2019-03-08T10:23:42.879Z,76.69
2019-03-08T10:26:21.180Z,75.21
2019-03-08T10:28:48.911Z,75.22
2019-03-08T10:31:32.028Z,76.38
2019-03-08T10:34:15.277Z,76.75
2019-03-08T10:36:45.514Z,75.56
2019-03-08T10:39:22.907Z,76.60
2019-03-08T10:41:55.973Z,77.17
2019-03-08T10:44:28.976Z,76.58
2019-03-08T10:47:00.968Z,76.56
2019-03-08T10:49:29.984Z,76.33
2019-03-08T10:52:05.537Z,75.72
2019-03-08T10:54:48.645Z,75.36
2019-03-08T10:57:31.938Z,75.93
2019-03-08T11:00:04.981Z,76.01
2019-03-08T11:02:49.190Z,75.09
2019-03-08T11:05:16.652Z,75.14
2019-03-08T11:07:48.827Z,74.90
2019-03-08T11:10:18.578Z,75.01
2019-03-08T11:12:46.908Z,74.59
2019-03-08T11:15:29.314Z,76.62
2019-03-08T11:17:56.760Z,81.65
2019-03-08T11:20:38.976Z,81.77
2019-03-08T11:23:21.325Z,83.62
2019-03-08T11:25:54.458Z,83.75
2019-03-08T11:28:22.707Z,84.09
2019-03-08T11:31:05.032Z,83.81
2019-03-08T11:33:47.370Z,83.54
2019-03-08T11:36:30.434Z,83.74
2019-03-08T11:39:00.673Z,83.98
2019-03-08T11:41:29.711Z,84.96
2019-03-08T11:43:57.174Z,84.70
2019-03-08T11:46:25.905Z,84.78
2019-03-08T11:49:14.072Z,84.56
2019-03-08T11:51:42.460Z,84.15
2019-03-08T11:54:11.739Z,83.28
2019-03-08T11:56:56.369Z,85.43
2019-03-08T11:59:22.397Z,84.54
2019-03-08T12:01:49.855Z,83.76
2019-03-08T12:04:33.999Z,83.17
2019-03-08T12:07:16.435Z,83.20
2019-03-08T12:09:48.246Z,81.60
2019-03-08T12:12:18.493Z,81.54
2019-03-08T12:14:45.947Z,81.52
2019-03-08T12:17:30.189Z,80.27
2019-03-08T12:20:15.382Z,80.01
2019-03-08T12:23:03.747Z,80.53
2019-03-08T12:25:36.767Z,80.43
2019-03-08T12:28:08.760Z,80.78
2019-03-08T12:30:37.016Z,80.03
2019-03-08T12:33:20.450Z,80.23
2019-03-08T12:35:49.772Z,80.36
2019-03-08T12:38:34.964Z,80.06
2019-03-08T12:41:06.946Z,80.78
2019-03-08T12:43:49.284Z,81.83
2019-03-08T12:46:22.646Z,81.40
2019-03-08T12:48:50.683Z,80.48
2019-03-08T12:51:28.966Z,80.86
2019-03-08T12:54:11.997Z,79.98
2019-03-08T12:56:40.155Z,80.26
2019-03-08T12:59:13.259Z,79.07
2019-03-08T13:01:56.508Z,77.23
2019-03-08T13:04:33.865Z,74.65
2019-03-08T13:07:01.528Z,74.05
2019-03-08T13:09:28.947Z,72.21
2019-03-08T13:11:56.424Z,68.45
2019-03-08T13:14:23.873Z,68.05
2019-03-08T13:16:51.370Z,65.23
2019-03-08T13:19:18.802Z,63.91
2019-03-08T13:21:46.281Z,63.20
2019-03-08T13:24:13.799Z,64.10
2019-03-08T13:26:41.971Z,63.53
2019-03-08T13:29:09.432Z,63.98
2019-03-08T13:31:36.853Z,64.17
2019-03-08T13:34:04.476Z,64.13
2019-03-08T13:36:32.172Z,63.64
2019-03-08T13:38:59.676Z,63.62
2019-03-08T13:41:27.133Z,62.33
2019-03-08T13:43:54.649Z,62.92
2019-03-08T13:46:22.114Z,60.45
2019-03-08T13:48:49.563Z,60.04
2019-03-08T13:51:17.040Z,59.43
2019-03-08T13:53:44.501Z,60.03
2019-03-08T13:56:12.020Z,60.67
2019-03-08T13:58:39.465Z,60.62
2019-03-08T14:01:08.307Z,61.55
2019-03-08T14:03:35.885Z,60.85
2019-03-08T14:06:03.313Z,59.61
2019-03-08T14:08:30.771Z,58.97
2019-03-08T14:10:58.241Z,59.39
2019-03-08T14:13:26.685Z,60.59
2019-03-08T14:15:54.191Z,59.54
2019-03-08T14:18:21.642Z,60.40
2019-03-08T14:20:49.104Z,60.72
2019-03-08T14:23:16.584Z,59.67
2019-03-08T14:25:44.079Z,59.76
2019-03-08T14:28:11.511Z,58.71
2019-03-08T14:30:57.820Z,58.56
2019-03-08T14:33:22.113Z,58.67
2019-03-08T14:35:49.598Z,59.31
2019-03-08T14:38:17.048Z,58.55
2019-03-08T14:40:44.532Z,59.47
2019-03-08T14:43:19.446Z,59.18
2019-03-08T14:45:47.234Z,59.08
2019-03-08T14:48:14.680Z,59.75
2019-03-08T14:50:42.122Z,58.97
2019-03-08T14:53:09.605Z,59.28
2019-03-08T14:55:37.045Z,59.94
2019-03-08T14:58:04.527Z,60.30
2019-03-08T15:00:31.985Z,60.43
2019-03-08T15:02:59.469Z,60.54
2019-03-08T15:05:26.913Z,60.88
2019-03-08T15:07:54.351Z,61.07
2019-03-08T15:10:21.794Z,61.83
2019-03-08T15:12:49.595Z,61.15
2019-03-08T15:15:17.706Z,61.42
2019-03-08T15:17:45.254Z,60.93
2019-03-08T15:20:15.313Z,60.95
2019-03-08T15:22:41.784Z,61.88
2019-03-08T15:25:12.523Z,60.22
2019-03-08T15:27:36.724Z,60.68
2019-03-08T15:30:06.098Z,59.70
2019-03-08T15:32:34.167Z,60.54
2019-03-08T15:35:01.656Z,59.92
2019-03-08T15:37:29.120Z,60.55
2019-03-08T15:39:56.600Z,60.27
2019-03-08T15:42:25.698Z,60.45
2019-03-08T15:44:53.255Z,60.61
2019-03-08T15:47:23.767Z,60.64
2019-03-08T15:49:48.141Z,60.57
2019-03-08T15:52:15.615Z,60.28
2019-03-08T15:54:43.045Z,60.46
2019-03-08T15:57:10.489Z,60.44
2019-03-08T15:59:37.919Z,60.52
2019-03-08T16:02:06.322Z,59.96
2019-03-08T16:04:32.941Z,59.70
2019-03-08T16:07:00.421Z,59.38
2019-03-08T16:09:27.901Z,58.92
2019-03-08T16:11:55.340Z,59.00
2019-03-08T16:14:22.764Z,59.34
2019-03-08T16:16:50.286Z,59.50
2019-03-08T16:19:20.871Z,59.33
2019-03-08T16:21:46.718Z,59.35
2019-03-08T16:24:12.715Z,60.25
2019-03-08T16:26:40.167Z,59.68
2019-03-08T16:29:07.599Z,59.47
2019-03-08T16:31:38.506Z,60.23
2019-03-08T16:34:06.332Z,60.06
2019-03-08T16:36:34.768Z,60.02
2019-03-08T16:39:04.671Z,60.52
2019-03-08T16:41:32.164Z,59.20
2019-03-08T16:44:17.867Z,59.21
2019-03-08T16:47:03.165Z,59.76
2019-03-08T16:49:34.089Z,59.43
2019-03-08T16:52:07.512Z,59.27
2019-03-08T16:54:51.335Z,59.19
2019-03-08T16:57:23.450Z,59.14
2019-03-08T16:59:51.217Z,59.79
2019-03-08T17:02:20.092Z,59.50
2019-03-08T17:04:49.970Z,59.71
2019-03-08T17:07:23.045Z,59.69
2019-03-08T17:10:04.349Z,59.68
2019-03-08T17:12:34.110Z,59.98
2019-03-08T17:15:21.329Z,60.17
2019-03-08T17:18:06.105Z,60.24
2019-03-08T17:20:34.622Z,60.71
2019-03-08T17:23:02.882Z,60.39
2019-03-08T17:25:35.104Z,60.57
2019-03-08T17:28:21.091Z,61.09
2019-03-08T17:30:49.005Z,61.45
2019-03-08T17:33:18.405Z,61.13
2019-03-08T17:35:53.221Z,61.32
2019-03-08T17:38:24.817Z,61.43
2019-03-08T17:40:56.759Z,61.06
2019-03-08T17:43:28.222Z,61.41
2019-03-08T17:46:05.549Z,61.73
2019-03-08T17:48:38.681Z,61.45
2019-03-08T17:51:07.601Z,61.71
2019-03-08T17:53:50.644Z,61.78
2019-03-08T17:56:23.758Z,61.87
2019-03-08T17:58:52.074Z,62.19
2019-03-08T18:01:21.860Z,62.74
2019-03-08T18:03:55.027Z,62.59
2019-03-08T18:06:24.907Z,62.34
2019-03-08T18:09:02.259Z,62.94
2019-03-08T18:11:44.567Z,63.17
2019-03-08T18:14:13.509Z,64.04
2019-03-08T18:16:42.725Z,65.24
2019-03-08T18:19:12.672Z,65.86
2019-03-08T18:21:40.274Z,66.86
2019-03-08T18:24:23.484Z,67.35
2019-03-08T18:26:46.153Z,67.65
2019-03-08T18:29:15.940Z,68.86
2019-03-08T18:32:02.169Z,69.34
2019-03-08T18:34:34.009Z,69.76
2019-03-08T18:37:03.400Z,70.55
2019-03-08T18:39:36.905Z,71.79
2019-03-08T18:42:19.119Z,71.95
2019-03-08T18:45:01.428Z,72.07
2019-03-08T18:47:34.755Z,73.31
2019-03-08T18:50:06.664Z,73.16
2019-03-08T18:52:34.105Z,74.00
2019-03-08T18:55:03.008Z,74.08
2019-03-08T18:57:47.066Z,73.81
2019-03-08T19:00:15.343Z,74.48
2019-03-08T19:02:53.656Z,74.74
2019-03-08T19:05:26.697Z,74.85
2019-03-08T19:07:54.153Z,75.25
2019-03-08T19:10:21.575Z,74.88
2019-03-08T19:12:54.490Z,75.50
2019-03-08T19:15:36.811Z,75.01
2019-03-08T19:18:09.697Z,75.09
2019-03-08T19:20:53.821Z,74.97
2019-03-08T19:23:22.293Z,74.77
2019-03-08T19:25:49.747Z,74.83
2019-03-08T19:28:20.018Z,75.16
2019-03-08T19:30:52.928Z,74.83
2019-03-08T19:33:20.995Z,75.14
2019-03-08T19:35:49.107Z,75.20
2019-03-08T19:38:16.632Z,74.73
2019-03-08T19:40:44.391Z,75.16
2019-03-08T19:43:29.540Z,74.93
2019-03-08T19:45:57.017Z,74.87
2019-03-08T19:48:35.200Z,74.80
2019-03-08T19:51:02.683Z,75.38
2019-03-08T19:53:49.947Z,74.78
2019-03-08T19:56:18.833Z,74.45
2019-03-08T19:58:50.666Z,75.38
2019-03-08T20:01:34.692Z,76.14
2019-03-08T20:04:07.688Z,75.14
2019-03-08T20:06:37.897Z,75.36
2019-03-08T20:09:21.126Z,76.31
2019-03-08T20:11:53.990Z,76.48
2019-03-08T20:14:21.867Z,75.73
2019-03-08T20:16:54.847Z,75.99
2019-03-08T20:19:27.843Z,76.05
2019-03-08T20:21:57.117Z,75.97
2019-03-08T20:24:25.906Z,76.25
2019-03-08T20:26:59.025Z,75.96
2019-03-08T20:29:42.245Z,75.94
2019-03-08T20:32:12.285Z,75.64
2019-03-08T20:34:46.080Z,75.77
2019-03-08T20:37:17.298Z,75.06
2019-03-08T20:40:01.371Z,74.96
2019-03-08T20:42:34.453Z,75.56
2019-03-08T20:45:18.574Z,75.06
2019-03-08T20:47:46.203Z,75.24
2019-03-08T20:50:13.631Z,75.28
2019-03-08T20:52:44.228Z,75.29
2019-03-08T20:55:11.669Z,74.81
2019-03-08T20:57:39.159Z,75.10
2019-03-08T21:00:08.542Z,75.61
2019-03-08T21:02:36.011Z,75.32
2019-03-08T21:05:04.612Z,74.86
2019-03-08T21:07:32.077Z,74.32
2019-03-08T21:10:00.490Z,74.64
2019-03-08T21:12:27.963Z,74.51
2019-03-08T21:14:55.473Z,74.39
2019-03-08T21:17:22.929Z,74.95
2019-03-08T21:19:50.906Z,74.85
2019-03-08T21:22:18.395Z,74.25
2019-03-08T21:24:45.888Z,74.59
2019-03-08T21:27:13.349Z,74.53
2019-03-08T21:29:41.423Z,74.89
2019-03-08T21:32:10.013Z,74.84
2019-03-08T21:34:37.466Z,74.06
2019-03-08T21:37:04.935Z,73.84
2019-03-08T21:39:33.297Z,74.04
2019-03-08T21:42:05.870Z,73.83
2019-03-08T21:44:46.560Z,74.13
2019-03-08T23:12:51.608Z,80.78
2019-03-08T23:15:19.156Z,81.33
2019-03-08T23:17:46.718Z,81.53
2019-03-08T23:20:14.234Z,81.95
2019-03-08T23:22:41.742Z,81.96
2019-03-08T23:25:09.237Z,81.81
2019-03-08T23:27:36.805Z,82.31
2019-03-08T23:30:05.140Z,81.83
2019-03-08T23:32:33.113Z,81.89
2019-03-08T23:35:00.553Z,81.17
2019-03-08T23:37:28.039Z,81.92
2019-03-08T23:39:55.512Z,81.43
2019-03-08T23:42:24.012Z,81.39
2019-03-08T23:44:51.530Z,81.66
2019-03-08T23:47:20.001Z,81.42
2019-03-08T23:49:47.429Z,82.03
2019-03-08T23:52:14.975Z,81.07
2019-03-08T23:54:43.750Z,81.18
2019-03-08T23:57:11.618Z,80.89
2019-03-08T23:59:39.313Z,80.51
